Proctorsville, Vermont
Current Conditions -  °F | °C
As of 1:54 AM on Monday 22 Dec 2014 (Local Time) from KVSF Reporting Station
Haze Haze  
Wind Chill: 28°   Ceiling: 2200
Heat Index: 28°   Visibility: 5mi
Dew Point: 27°   Wind: 0mph
Humidity: 96%   Direction: NA
Pressure: 30.36"   Gusts: NA
Location:  43.38°N, 72.64°W
Report Text: KVSF 220654Z AUTO 00000KT 5SM BR BKN022 OVC040 M02/M03 A3036 RMK AO2 SLP290 T10221028 TSNO
Loading
Personal Weather Stations






























Interactive Weather Map New forecast layout! Learn more

10-Day Weather Forecast

Advertisements
Track Severe Weather on mobile